createdAt,value
2017-01-10T00:00:37.685Z,-9.9
2017-01-10T00:01:37.668Z,-9.92
2017-01-10T00:02:37.646Z,-9.77
2017-01-10T00:03:37.618Z,-9.74
2017-01-10T00:04:37.595Z,-9.78
2017-01-10T00:05:37.579Z,-9.77
2017-01-10T00:06:37.550Z,-9.75
2017-01-10T00:07:37.530Z,-9.88
2017-01-10T00:08:37.508Z,-9.9
2017-01-10T00:09:37.488Z,-9.88
2017-01-10T00:10:37.452Z,-9.95
2017-01-10T00:11:37.435Z,-9.99
2017-01-10T00:12:37.414Z,-10
2017-01-10T00:13:37.382Z,-9.92
2017-01-10T00:14:37.358Z,-10
2017-01-10T00:15:37.330Z,-9.95
2017-01-10T00:16:37.325Z,-10
2017-01-10T00:17:37.296Z,-10.03
2017-01-10T00:18:37.266Z,-10.1
2017-01-10T00:19:37.232Z,-10.05
2017-01-10T00:20:37.222Z,-10.11
2017-01-10T00:21:37.194Z,-10.08
2017-01-10T00:22:37.191Z,-10.2
2017-01-10T00:23:37.142Z,-10.18
2017-01-10T00:24:37.119Z,-10.23
2017-01-10T00:25:37.099Z,-10.2
2017-01-10T00:26:37.075Z,-10.17
2017-01-10T00:27:37.042Z,-10.26
2017-01-10T00:28:37.018Z,-10.24
2017-01-10T00:29:37.003Z,-10.31
2017-01-10T00:30:36.975Z,-10.21
2017-01-10T00:31:36.948Z,-10.32
2017-01-10T00:32:36.934Z,-10.26
2017-01-10T00:33:36.895Z,-10.26
2017-01-10T00:34:36.875Z,-10.26
2017-01-10T00:35:36.858Z,-10.28
2017-01-10T00:36:36.820Z,-10.37
2017-01-10T00:37:36.811Z,-10.32
2017-01-10T00:38:36.785Z,-10.34
2017-01-10T00:39:36.760Z,-10.29
2017-01-10T00:40:36.722Z,-10.31
2017-01-10T00:41:36.707Z,-10.34
2017-01-10T00:42:36.701Z,-10.39
2017-01-10T00:43:36.663Z,-10.44
2017-01-10T00:44:36.627Z,-10.49
2017-01-10T00:45:36.607Z,-10.47
2017-01-10T00:46:36.584Z,-10.41
2017-01-10T00:47:36.586Z,-10.38
2017-01-10T00:48:36.540Z,-10.35
2017-01-10T00:49:36.513Z,-10.47
2017-01-10T00:50:36.478Z,-10.39
2017-01-10T00:51:36.460Z,-10.49
2017-01-10T00:52:36.433Z,-10.56
2017-01-10T00:53:36.411Z,-10.47
2017-01-10T00:54:36.386Z,-10.44
2017-01-10T00:55:36.357Z,-10.5
2017-01-10T00:56:36.341Z,-10.38
2017-01-10T00:57:36.307Z,-10.46
2017-01-10T00:58:36.285Z,-10.38
2017-01-10T00:59:36.256Z,-10.41
2017-01-10T01:00:36.241Z,-10.34
2017-01-10T01:01:36.231Z,-10.44
2017-01-10T01:02:36.187Z,-10.35
2017-01-10T01:03:36.160Z,-10.41
2017-01-10T01:04:36.137Z,-10.42
2017-01-10T01:05:36.107Z,-10.41
2017-01-10T01:06:36.083Z,-10.42
2017-01-10T01:07:36.055Z,-10.46
2017-01-10T01:08:36.033Z,-10.46
2017-01-10T01:09:36.009Z,-10.47
2017-01-10T01:10:35.981Z,-10.52
2017-01-10T01:11:35.968Z,-10.47
2017-01-10T01:12:35.936Z,-10.49
2017-01-10T01:13:35.911Z,-10.49
2017-01-10T01:14:35.877Z,-10.5
2017-01-10T01:15:35.865Z,-10.47
2017-01-10T01:16:35.848Z,-10.35
2017-01-10T01:17:35.804Z,-10.28
2017-01-10T01:18:35.783Z,-10.29
2017-01-10T01:19:35.753Z,-10.31
2017-01-10T01:20:35.733Z,-10.28
2017-01-10T01:21:35.713Z,-10.28
2017-01-10T01:22:35.682Z,-10.26
2017-01-10T01:23:35.660Z,-10.29
2017-01-10T01:24:35.634Z,-10.18
2017-01-10T01:25:35.608Z,-10.17
2017-01-10T01:26:35.587Z,-10.13
2017-01-10T01:27:35.552Z,-10.1
2017-01-10T01:28:35.532Z,-10.06
2017-01-10T01:29:35.518Z,-10.14
2017-01-10T01:30:35.490Z,-10.06
2017-01-10T01:31:35.463Z,-10.2
2017-01-10T01:32:35.436Z,-10.18
2017-01-10T01:33:35.407Z,-10.26
2017-01-10T01:34:35.387Z,-10.28
2017-01-10T01:35:35.370Z,-10.26
2017-01-10T01:36:35.332Z,-10.28
2017-01-10T01:37:35.312Z,-10.28
2017-01-10T01:38:35.291Z,-10.32
2017-01-10T01:39:35.277Z,-10.32
2017-01-10T01:40:35.244Z,-10.26
2017-01-10T01:41:35.219Z,-10.14
2017-01-10T01:42:35.189Z,-10.29
2017-01-10T01:43:35.174Z,-10.24
2017-01-10T01:44:35.145Z,-10.26
2017-01-10T01:45:35.119Z,-10.32
2017-01-10T01:46:35.087Z,-10.2
2017-01-10T01:47:35.071Z,-10.08
2017-01-10T01:48:35.039Z,-9.99
2017-01-10T01:49:35.027Z,-10.02
2017-01-10T01:50:35.003Z,-9.95
2017-01-10T01:51:34.985Z,-9.99
2017-01-10T01:52:34.946Z,-10.06
2017-01-10T01:53:34.921Z,-10.06
2017-01-10T01:54:34.897Z,-9.88
2017-01-10T01:55:34.879Z,-9.97
2017-01-10T01:56:34.846Z,-9.92
2017-01-10T01:57:34.831Z,-9.87
2017-01-10T01:58:34.801Z,-9.81
2017-01-10T01:59:34.775Z,-9.88
2017-01-10T02:00:34.749Z,-9.95
2017-01-10T02:01:34.731Z,-9.93
2017-01-10T02:02:34.712Z,-9.84
2017-01-10T02:03:34.673Z,-9.95
2017-01-10T02:04:34.654Z,-9.87
2017-01-10T02:05:34.632Z,-9.97
2017-01-10T02:06:34.608Z,-10.03
2017-01-10T02:07:34.587Z,-10.08
2017-01-10T02:08:34.553Z,-10.02
2017-01-10T02:09:34.530Z,-10
2017-01-10T02:10:34.496Z,-10.03
2017-01-10T02:11:34.483Z,-9.99
2017-01-10T02:12:34.454Z,-9.96
2017-01-10T02:13:34.428Z,-9.97
2017-01-10T02:14:34.416Z,-9.9
2017-01-10T02:15:34.380Z,-10
2017-01-10T02:16:34.361Z,-9.95
2017-01-10T02:17:34.182Z,-9.96
2017-01-10T02:18:34.320Z,-10.08
2017-01-10T02:19:34.283Z,-10.11
2017-01-10T02:20:34.256Z,-9.97
2017-01-10T02:21:34.224Z,-9.99
2017-01-10T02:22:34.209Z,-9.99
2017-01-10T02:23:34.177Z,-10.02
2017-01-10T02:24:34.160Z,-10.1
2017-01-10T02:25:34.132Z,-10.28
2017-01-10T02:26:34.116Z,-10.23
2017-01-10T02:27:33.933Z,-10.26
2017-01-10T02:28:34.052Z,-10.24
2017-01-10T02:29:34.030Z,-10.26
2017-01-10T02:30:34.011Z,-10.06
2017-01-10T02:31:33.982Z,-10.11
2017-01-10T02:32:33.955Z,-10.1
2017-01-10T02:33:33.929Z,-10.14
2017-01-10T02:34:33.912Z,-10.03
2017-01-10T02:35:33.890Z,-10.05
2017-01-10T02:36:33.852Z,-10.05
2017-01-10T02:37:33.838Z,-9.97
2017-01-10T02:38:33.807Z,-9.96
2017-01-10T02:39:33.784Z,-9.92
2017-01-10T02:40:33.772Z,-9.87
2017-01-10T02:41:33.729Z,-9.88
2017-01-10T02:42:33.708Z,-9.82
2017-01-10T02:43:33.681Z,-9.77
2017-01-10T02:44:33.660Z,-9.93
2017-01-10T02:45:33.636Z,-9.79
2017-01-10T02:46:33.612Z,-9.95
2017-01-10T02:47:33.586Z,-9.9
2017-01-10T02:48:33.559Z,-9.88
2017-01-10T02:49:33.532Z,-9.92
2017-01-10T02:50:33.551Z,-9.88
2017-01-10T02:51:33.490Z,-9.9
2017-01-10T02:52:33.469Z,-10.06
2017-01-10T02:53:33.429Z,-9.96
2017-01-10T02:54:33.403Z,-9.93
2017-01-10T02:55:33.386Z,-9.97
2017-01-10T02:56:33.367Z,-9.99
2017-01-10T02:57:33.345Z,-9.9
2017-01-10T02:58:33.311Z,-9.81
2017-01-10T02:59:33.297Z,-9.74
2017-01-10T03:00:33.275Z,-9.85
2017-01-10T03:01:33.239Z,-9.84
2017-01-10T03:02:33.612Z,-9.82
2017-01-10T03:03:33.194Z,-9.66
2017-01-10T03:04:33.166Z,-9.88
2017-01-10T03:05:33.150Z,-9.81
2017-01-10T03:06:33.112Z,-9.81
2017-01-10T03:07:33.087Z,-9.77
2017-01-10T03:08:33.063Z,-9.79
2017-01-10T03:09:33.035Z,-9.77
2017-01-10T03:10:33.014Z,-9.77
2017-01-10T03:11:32.983Z,-9.78
2017-01-10T03:12:32.969Z,-9.7
2017-01-10T03:13:32.940Z,-9.7
2017-01-10T03:14:32.924Z,-9.77
2017-01-10T03:15:32.892Z,-9.68
2017-01-10T03:16:32.875Z,-9.77
2017-01-10T03:17:32.845Z,-9.63
2017-01-10T03:18:32.816Z,-9.79
2017-01-10T03:19:32.791Z,-9.78
2017-01-10T03:20:32.766Z,-9.63
2017-01-10T03:21:32.744Z,-9.64
2017-01-10T03:22:32.720Z,-9.64
2017-01-10T03:23:32.688Z,-9.68
2017-01-10T03:24:32.668Z,-9.67
2017-01-10T03:25:32.644Z,-9.56
2017-01-10T03:26:32.609Z,-9.5
2017-01-10T03:27:32.812Z,-9.54
2017-01-10T03:28:32.571Z,-9.7
2017-01-10T03:29:32.544Z,-9.63
2017-01-10T03:30:32.519Z,-9.58
2017-01-10T03:31:32.502Z,-9.57
2017-01-10T03:32:32.469Z,-9.6
2017-01-10T03:33:32.448Z,-9.57
2017-01-10T03:34:32.416Z,-9.66
2017-01-10T03:35:32.402Z,-9.57
2017-01-10T03:36:32.375Z,-9.5
2017-01-10T03:37:32.349Z,-9.54
2017-01-10T03:38:32.319Z,-9.54
2017-01-10T03:39:32.301Z,-9.57
2017-01-10T03:40:32.274Z,-9.56
2017-01-10T03:41:32.249Z,-9.5
2017-01-10T03:42:32.229Z,-9.54
2017-01-10T03:43:32.185Z,-9.46
2017-01-10T03:44:32.181Z,-9.47
2017-01-10T03:45:32.152Z,-9.45
2017-01-10T03:46:32.125Z,-9.46
2017-01-10T03:47:32.088Z,-9.43
2017-01-10T03:48:32.060Z,-9.49
2017-01-10T03:49:32.043Z,-9.5
2017-01-10T03:50:32.016Z,-9.45
2017-01-10T03:51:31.994Z,-9.49
2017-01-10T03:52:32.174Z,-9.49
2017-01-10T03:53:31.945Z,-9.47
2017-01-10T03:54:31.921Z,-9.54
2017-01-10T03:55:31.903Z,-9.53
2017-01-10T03:56:31.863Z,-9.47
2017-01-10T03:57:31.857Z,-9.47
2017-01-10T03:58:31.817Z,-9.53
2017-01-10T03:59:31.808Z,-9.43
2017-01-10T04:00:31.770Z,-9.45
2017-01-10T04:01:31.749Z,-9.49
2017-01-10T04:02:31.720Z,-9.43
2017-01-10T04:03:31.700Z,-9.47
2017-01-10T04:04:31.674Z,-9.46
2017-01-10T04:05:31.651Z,-9.49
2017-01-10T04:06:31.615Z,-9.49
2017-01-10T04:07:31.592Z,-9.47
2017-01-10T04:08:31.571Z,-9.53
2017-01-10T04:09:31.545Z,-9.43
2017-01-10T04:10:31.523Z,-9.47
2017-01-10T04:11:31.502Z,-9.45
2017-01-10T04:12:31.460Z,-9.46
2017-01-10T04:13:31.448Z,-9.46
2017-01-10T04:14:31.417Z,-9.45
2017-01-10T04:15:31.394Z,-9.47
2017-01-10T04:16:31.366Z,-9.49
2017-01-10T04:17:31.344Z,-9.38
2017-01-10T04:18:31.505Z,-9.47
2017-01-10T04:19:31.291Z,-9.43
2017-01-10T04:20:31.266Z,-9.54
2017-01-10T04:21:31.241Z,-9.5
2017-01-10T04:22:31.219Z,-9.5
2017-01-10T04:23:31.200Z,-9.43
2017-01-10T04:24:31.174Z,-9.5
2017-01-10T04:25:31.143Z,-9.45
2017-01-10T04:26:31.125Z,-9.47
2017-01-10T04:27:31.094Z,-9.41
2017-01-10T04:28:31.072Z,-9.5
2017-01-10T04:29:31.039Z,-9.5
2017-01-10T04:30:31.019Z,-9.46
2017-01-10T04:31:30.993Z,-9.46
2017-01-10T04:32:30.964Z,-9.47
2017-01-10T04:33:30.946Z,-9.5
2017-01-10T04:34:30.916Z,-9.5
2017-01-10T04:35:30.884Z,-9.53
2017-01-10T04:36:30.865Z,-9.61
2017-01-10T04:37:30.837Z,-9.54
2017-01-10T04:38:30.809Z,-9.54
2017-01-10T04:39:30.787Z,-9.58
2017-01-10T04:40:30.771Z,-9.67
2017-01-10T04:41:30.739Z,-9.6
2017-01-10T04:42:30.711Z,-9.56
2017-01-10T04:43:30.690Z,-9.56
2017-01-10T04:44:30.861Z,-9.5
2017-01-10T04:45:30.651Z,-9.53
2017-01-10T04:46:30.609Z,-9.61
2017-01-10T04:47:30.586Z,-9.49
2017-01-10T04:48:30.566Z,-9.47
2017-01-10T04:49:30.540Z,-9.5
2017-01-10T04:50:30.516Z,-9.41
2017-01-10T04:51:30.485Z,-9.49
2017-01-10T04:52:30.467Z,-9.54
2017-01-10T04:53:30.436Z,-9.58
2017-01-10T04:54:30.426Z,-9.61
2017-01-10T04:55:30.387Z,-9.6
2017-01-10T04:56:30.364Z,-9.54
2017-01-10T04:57:30.344Z,-9.53
2017-01-10T04:58:30.315Z,-9.63
2017-01-10T04:59:30.289Z,-9.72
2017-01-10T05:00:30.261Z,-9.61
2017-01-10T05:01:30.250Z,-9.72
2017-01-10T05:02:30.216Z,-9.64
2017-01-10T05:03:30.200Z,-9.53
2017-01-10T05:04:30.167Z,-9.6
2017-01-10T05:05:30.139Z,-9.5
2017-01-10T05:06:30.124Z,-9.53
2017-01-10T05:07:30.097Z,-9.57
2017-01-10T05:08:30.073Z,-9.54
2017-01-10T05:09:30.042Z,-9.63
2017-01-10T05:10:30.023Z,-9.57
2017-01-10T05:11:29.985Z,-9.49
2017-01-10T05:12:29.957Z,-9.5
2017-01-10T05:13:29.938Z,-9.35
2017-01-10T05:14:29.916Z,-9.54
2017-01-10T05:15:29.893Z,-9.47
2017-01-10T05:16:29.863Z,-9.38
2017-01-10T05:17:29.834Z,-9.39
2017-01-10T05:18:29.814Z,-9.46
2017-01-10T05:19:29.783Z,-9.45
2017-01-10T05:20:29.770Z,-9.53
2017-01-10T05:21:29.739Z,-9.39
2017-01-10T05:22:29.708Z,-9.53
2017-01-10T05:23:29.689Z,-9.46
2017-01-10T05:24:29.652Z,-9.45
2017-01-10T05:25:29.633Z,-9.54
2017-01-10T05:26:29.624Z,-9.5
2017-01-10T05:27:29.602Z,-9.68
2017-01-10T05:28:29.563Z,-9.67
2017-01-10T05:29:29.542Z,-9.67
2017-01-10T05:30:29.523Z,-9.88
2017-01-10T05:31:29.488Z,-9.9
2017-01-10T05:32:29.457Z,-9.95
2017-01-10T05:33:29.441Z,-9.87
2017-01-10T05:34:29.416Z,-10.03
2017-01-10T05:35:29.381Z,-10
2017-01-10T05:36:29.363Z,-10.03
2017-01-10T05:37:29.327Z,-10.03
2017-01-10T05:38:29.312Z,-10.08
2017-01-10T05:39:29.288Z,-10.08
2017-01-10T05:40:29.264Z,-10.08
2017-01-10T05:41:29.231Z,-9.95
2017-01-10T05:42:29.210Z,-10.05
2017-01-10T05:43:29.188Z,-10.03
2017-01-10T05:44:29.165Z,-9.85
2017-01-10T05:45:29.142Z,-9.87
2017-01-10T05:46:29.109Z,-9.77
2017-01-10T05:47:29.082Z,-9.75
2017-01-10T05:48:29.065Z,-9.87
2017-01-10T05:49:29.031Z,-9.82
2017-01-10T05:50:29.012Z,-9.78
2017-01-10T05:51:28.983Z,-9.68
2017-01-10T05:52:28.948Z,-9.74
2017-01-10T05:53:28.931Z,-9.77
2017-01-10T05:54:28.929Z,-9.72
2017-01-10T05:55:28.885Z,-9.81
2017-01-10T05:56:28.869Z,-9.92
2017-01-10T05:57:28.830Z,-9.95
2017-01-10T05:58:28.812Z,-10.16
2017-01-10T05:59:28.776Z,-10.14
2017-01-10T06:00:28.760Z,-10.2
2017-01-10T06:01:28.734Z,-10.26
2017-01-10T06:02:28.697Z,-10.31
2017-01-10T06:03:28.684Z,-10.35
2017-01-10T06:04:28.653Z,-10.47
2017-01-10T06:05:28.632Z,-10.42
2017-01-10T06:06:28.606Z,-10.34
2017-01-10T06:07:28.580Z,-10.26
2017-01-10T06:08:28.548Z,-10.32
2017-01-10T06:09:28.535Z,-10.35
2017-01-10T06:10:28.494Z,-10.32
2017-01-10T06:11:28.480Z,-10.42
2017-01-10T06:12:28.451Z,-10.34
2017-01-10T06:13:28.431Z,-10.26
2017-01-10T06:14:28.391Z,-10.49
2017-01-10T06:15:28.377Z,-10.47
2017-01-10T06:16:28.351Z,-10.46
2017-01-10T06:17:28.329Z,-10.39
2017-01-10T06:18:28.306Z,-10.34
2017-01-10T06:19:28.265Z,-10.23
2017-01-10T06:20:28.245Z,-10.11
2017-01-10T06:21:28.211Z,-10.24
2017-01-10T06:22:28.194Z,-10.31
2017-01-10T06:23:28.179Z,-10.32
2017-01-10T06:24:28.146Z,-10.34
2017-01-10T06:25:28.117Z,-10.23
2017-01-10T06:26:28.095Z,-10.17
2017-01-10T06:27:28.075Z,-10.31
2017-01-10T06:28:28.039Z,-10.23
2017-01-10T06:29:28.018Z,-10.29
2017-01-10T06:30:28.002Z,-10.31
2017-01-10T06:31:27.963Z,-10.32
2017-01-10T06:32:27.937Z,-10.2
2017-01-10T06:33:27.908Z,-9.96
2017-01-10T06:34:27.881Z,-9.81
2017-01-10T06:35:27.867Z,-9.82
2017-01-10T06:36:27.831Z,-9.72
2017-01-10T06:37:27.805Z,-9.87
2017-01-10T06:38:27.775Z,-9.79
2017-01-10T06:39:27.760Z,-9.75
2017-01-10T06:40:27.731Z,-9.77
2017-01-10T06:41:27.699Z,-9.99
2017-01-10T06:42:27.686Z,-9.7
2017-01-10T06:43:27.650Z,-9.6
2017-01-10T06:44:27.627Z,-9.53
2017-01-10T06:45:27.609Z,-9.49
2017-01-10T06:46:27.579Z,-9.5
2017-01-10T06:47:27.559Z,-9.54
2017-01-10T06:48:27.529Z,-9.53
2017-01-10T06:49:27.518Z,-9.49
2017-01-10T06:50:27.481Z,-9.64
2017-01-10T06:51:27.449Z,-9.77
2017-01-10T06:52:27.430Z,-9.99
2017-01-10T06:53:27.409Z,-9.88
2017-01-10T06:54:27.384Z,-9.92
2017-01-10T06:55:27.347Z,-9.67
2017-01-10T06:56:27.326Z,-9.68
2017-01-10T06:57:27.314Z,-9.9
2017-01-10T06:58:27.306Z,-9.81
2017-01-10T06:59:27.253Z,-9.78
2017-01-10T07:00:27.238Z,-9.61
2017-01-10T07:01:27.222Z,-9.49
2017-01-10T07:02:27.177Z,-9.5
2017-01-10T07:03:27.158Z,-9.47
2017-01-10T07:04:27.128Z,-9.38
2017-01-10T07:05:27.113Z,-9.26
2017-01-10T07:06:27.074Z,-9.24
2017-01-10T07:07:27.053Z,-9.12
2017-01-10T07:08:27.025Z,-8.99
2017-01-10T07:09:27.018Z,-8.88
2017-01-10T07:10:26.984Z,-8.81
2017-01-10T07:11:26.955Z,-8.68
2017-01-10T07:12:26.927Z,-8.63
2017-01-10T07:13:26.899Z,-8.55
2017-01-10T07:14:26.885Z,-8.58
2017-01-10T07:15:26.858Z,-8.39
2017-01-10T07:16:26.824Z,-8.47
2017-01-10T07:17:26.804Z,-8.31
2017-01-10T07:18:26.775Z,-8.28
2017-01-10T07:19:26.767Z,-8.24
2017-01-10T07:20:26.728Z,-8.25
2017-01-10T07:21:26.711Z,-8.18
2017-01-10T07:22:26.685Z,-8.21
2017-01-10T07:23:26.661Z,-8.1
2017-01-10T07:24:26.663Z,-7.98
2017-01-10T07:25:26.619Z,-7.98
2017-01-10T07:26:26.586Z,-7.89
2017-01-10T07:27:26.566Z,-7.68
2017-01-10T07:28:26.549Z,-7.53
2017-01-10T07:29:26.521Z,-7.73
2017-01-10T07:30:26.495Z,-7.68
2017-01-10T07:31:26.482Z,-7.64
2017-01-10T07:32:26.449Z,-7.76
2017-01-10T07:33:26.429Z,-7.64
2017-01-10T07:34:26.408Z,-7.68
2017-01-10T07:35:26.384Z,-7.66
2017-01-10T07:36:26.368Z,-7.74
2017-01-10T07:37:26.344Z,-7.71
2017-01-10T07:38:26.327Z,-7.62
2017-01-10T07:39:26.292Z,-7.59
2017-01-10T07:40:26.265Z,-7.62
2017-01-10T07:41:26.247Z,-7.34
2017-01-10T07:42:26.217Z,-7.41
2017-01-10T07:43:26.206Z,-7.41
2017-01-10T07:44:26.184Z,-7.62
2017-01-10T07:45:26.156Z,-7.49
2017-01-10T07:46:26.131Z,-7.37
2017-01-10T07:47:26.111Z,-7.2
2017-01-10T07:48:26.086Z,-7.23
2017-01-10T07:49:26.068Z,-6.99
2017-01-10T07:50:26.042Z,-7.17
2017-01-10T07:51:26.016Z,-7.16
2017-01-10T07:52:25.993Z,-7.1
2017-01-10T07:53:26.367Z,-7.2
2017-01-10T07:54:25.953Z,-7.31
2017-01-10T07:55:25.931Z,-7.08
2017-01-10T07:56:25.911Z,-6.9
2017-01-10T07:57:25.888Z,-6.81
2017-01-10T07:58:25.862Z,-6.45
2017-01-10T07:59:25.848Z,-6.41
2017-01-10T08:00:25.845Z,-6.42
2017-01-10T08:01:25.791Z,-6.32
2017-01-10T08:02:25.766Z,-6.42
2017-01-10T08:03:25.752Z,-6.41
2017-01-10T08:04:25.753Z,-6.13
2017-01-10T08:05:25.709Z,-6
2017-01-10T08:06:25.713Z,-5.88
2017-01-10T08:07:25.671Z,-5.51
2017-01-10T08:08:25.646Z,-5.27
2017-01-10T08:09:25.624Z,-4.83
2017-01-10T08:10:25.614Z,-4.72
2017-01-10T08:11:25.590Z,-4.55
2017-01-10T08:12:25.567Z,-4.79
2017-01-10T08:13:25.545Z,-4.67
2017-01-10T08:14:25.550Z,-4.62
2017-01-10T08:15:25.496Z,-4.38
2017-01-10T08:16:25.477Z,-3.98
2017-01-10T08:17:25.465Z,-3.79
2017-01-10T08:18:25.444Z,-3.79
2017-01-10T08:19:25.425Z,-3.47
2017-01-10T08:20:25.407Z,-3.16
2017-01-10T08:21:25.377Z,-3.07
2017-01-10T08:22:25.370Z,-2.74
2017-01-10T08:23:25.346Z,-2.41
2017-01-10T08:24:25.332Z,-2.24
2017-01-10T08:25:25.306Z,-2.01
2017-01-10T08:26:25.295Z,-2.11
2017-01-10T08:27:25.274Z,-2.37
2017-01-10T08:28:25.281Z,-2.44
2017-01-10T08:29:25.240Z,-2.22
2017-01-10T08:30:25.216Z,-2.29
2017-01-10T08:31:25.198Z,-2.66
2017-01-10T08:32:25.181Z,-3.04
2017-01-10T08:33:25.175Z,-3.21
2017-01-10T08:34:25.161Z,-3.05
2017-01-10T08:35:25.141Z,-2.77
2017-01-10T08:36:25.114Z,-2.66
2017-01-10T08:37:25.103Z,-2.66
2017-01-10T08:38:25.086Z,-2.64
2017-01-10T08:39:25.090Z,-2.47
2017-01-10T08:40:25.057Z,-2.61
2017-01-10T08:41:25.042Z,-2.69
2017-01-10T08:42:25.015Z,-2.69
2017-01-10T08:43:25.001Z,-2.43
2017-01-10T08:44:24.994Z,-2.06
2017-01-10T08:45:24.964Z,-2.37
2017-01-10T08:46:24.953Z,-2.74
2017-01-10T08:47:24.951Z,-3.22
2017-01-10T08:48:24.917Z,-3.62
2017-01-10T08:49:24.901Z,-3.34
2017-01-10T08:50:24.884Z,-2.97
2017-01-10T08:51:24.859Z,-2.76
2017-01-10T08:52:24.846Z,-2.71
2017-01-10T08:53:24.823Z,-2.46
2017-01-10T08:54:24.815Z,-2.59
2017-01-10T08:55:24.794Z,-2.25
2017-01-10T08:56:24.791Z,-2.21
2017-01-10T08:57:24.774Z,-1.77
2017-01-10T08:58:24.748Z,-1.72
2017-01-10T08:59:24.744Z,-1.44
2017-01-10T09:00:24.713Z,-0.95
2017-01-10T09:01:24.714Z,-0.26
2017-01-10T09:02:24.686Z,0.15
2017-01-10T09:03:24.664Z,0.68
2017-01-10T09:04:24.691Z,1.24
2017-01-10T09:05:24.643Z,1.72
2017-01-10T09:06:24.632Z,2.19
2017-01-10T09:07:24.620Z,2.58
2017-01-10T09:08:24.593Z,2.81
2017-01-10T09:09:24.585Z,2.77
2017-01-10T09:10:24.578Z,2.95
2017-01-10T09:11:24.589Z,3.15
2017-01-10T09:12:24.551Z,3.37
2017-01-10T09:13:24.533Z,3.35
2017-01-10T09:14:24.514Z,3.53
2017-01-10T09:15:24.510Z,3.64
2017-01-10T09:16:24.489Z,3.52
2017-01-10T09:17:24.473Z,3.22
2017-01-10T09:18:24.459Z,3.26
2017-01-10T09:19:24.445Z,3.1
2017-01-10T09:20:24.433Z,2.45
2017-01-10T09:21:24.432Z,2.4
2017-01-10T09:22:24.404Z,2.62
2017-01-10T09:23:24.385Z,2.71
2017-01-10T09:24:24.381Z,2.97
2017-01-10T09:25:24.368Z,3.02
2017-01-10T09:26:24.356Z,3.07
2017-01-10T09:27:24.346Z,3.22
2017-01-10T09:28:24.336Z,1.65
2017-01-10T09:29:24.319Z,1.06
2017-01-10T09:30:24.289Z,0.84
2017-01-10T09:31:24.290Z,0.9
2017-01-10T09:32:24.267Z,1.14
2017-01-10T09:33:24.250Z,1.36
2017-01-10T09:34:24.252Z,1.68
2017-01-10T09:35:24.224Z,2.05
2017-01-10T09:36:24.214Z,2.14
2017-01-10T09:37:24.207Z,1.93
2017-01-10T09:38:24.187Z,2.01
2017-01-10T09:39:24.167Z,2.01
2017-01-10T09:40:24.150Z,2.07
2017-01-10T09:41:24.141Z,1.98
2017-01-10T09:42:24.124Z,1.56
2017-01-10T09:43:24.117Z,0.1
2017-01-10T09:44:24.092Z,-1.38
2017-01-10T09:45:24.079Z,-2.64
2017-01-10T09:46:24.073Z,-2.74
2017-01-10T09:47:24.047Z,-2.89
2017-01-10T09:48:24.029Z,-2.8
2017-01-10T09:49:24.020Z,-3.1
2017-01-10T09:50:23.998Z,-2.62
2017-01-10T09:51:23.992Z,-2.24
2017-01-10T09:52:23.966Z,-2.33
2017-01-10T09:53:23.951Z,-2.07
2017-01-10T09:54:23.942Z,-1.86
2017-01-10T09:55:23.929Z,-2.03
2017-01-10T09:56:23.913Z,-1.68
2017-01-10T09:57:23.895Z,-1.65
2017-01-10T09:58:23.875Z,-1.71
2017-01-10T09:59:23.871Z,-2.16
2017-01-10T10:00:23.854Z,-2.87
2017-01-10T10:01:23.828Z,-2.86
2017-01-10T10:02:23.811Z,-2.72
2017-01-10T10:03:23.798Z,-2.64
2017-01-10T10:04:23.773Z,-2.07
2017-01-10T10:05:23.774Z,-1.85
2017-01-10T10:06:23.758Z,-1.75
2017-01-10T10:07:23.729Z,-1.56
2017-01-10T10:08:23.718Z,-1.32
2017-01-10T10:09:23.698Z,-0.92
2017-01-10T10:10:23.694Z,-1.11
2017-01-10T10:11:23.672Z,-1.25
2017-01-10T10:12:23.647Z,-0.97
2017-01-10T10:13:23.639Z,-0.49
2017-01-10T10:14:23.617Z,-0.08
2017-01-10T10:15:23.598Z,0.12
2017-01-10T10:16:23.588Z,0.37
2017-01-10T10:17:23.573Z,0.19
2017-01-10T10:18:23.555Z,-0.86
2017-01-10T10:19:23.546Z,-1.33
2017-01-10T10:20:23.528Z,-1.33
2017-01-10T10:21:23.524Z,-1.14
2017-01-10T10:22:23.503Z,-0.5
2017-01-10T10:23:23.491Z,-0.14
2017-01-10T10:24:23.469Z,-0.02
2017-01-10T10:25:23.452Z,-0.31
2017-01-10T10:26:23.434Z,-0.73
2017-01-10T10:27:23.428Z,-0.38
2017-01-10T10:28:23.405Z,-0.92
2017-01-10T10:29:23.389Z,-1.47
2017-01-10T10:30:23.371Z,-1.7
2017-01-10T10:31:23.368Z,-1.71
2017-01-10T10:32:23.341Z,-1.75
2017-01-10T10:33:23.331Z,-1.68
2017-01-10T10:34:23.311Z,-0.95
2017-01-10T10:35:23.337Z,0.13
2017-01-10T10:36:23.286Z,0.96
2017-01-10T10:37:23.268Z,1.49
2017-01-10T10:38:23.254Z,1.93
2017-01-10T10:39:23.241Z,2.04
2017-01-10T10:40:23.232Z,2.26
2017-01-10T10:41:23.211Z,2.51
2017-01-10T10:42:23.189Z,2.59
2017-01-10T10:43:23.183Z,2.47
2017-01-10T10:44:23.168Z,2.22
2017-01-10T10:45:23.153Z,2.33
2017-01-10T10:46:23.137Z,2.44
2017-01-10T10:47:23.116Z,2.44
2017-01-10T10:48:23.101Z,1.63
2017-01-10T10:49:23.095Z,1.82
2017-01-10T10:50:23.085Z,1.52
2017-01-10T10:51:23.061Z,1.17
2017-01-10T10:52:23.047Z,1.25
2017-01-10T10:53:23.033Z,1.13
2017-01-10T10:54:23.016Z,0.51
2017-01-10T10:55:23.003Z,1.08
2017-01-10T10:56:22.995Z,1.13
2017-01-10T10:57:22.973Z,0.7
2017-01-10T10:58:22.962Z,0.01
2017-01-10T10:59:22.947Z,-0.35
2017-01-10T11:00:22.926Z,-0.19
2017-01-10T11:01:22.923Z,-1.61
2017-01-10T11:02:22.900Z,-2.11
2017-01-10T11:03:22.883Z,-1.89
2017-01-10T11:04:22.865Z,-0.93
2017-01-10T11:05:22.853Z,-1.56
2017-01-10T11:06:22.837Z,-1.13
2017-01-10T11:07:22.825Z,-0.68
2017-01-10T11:08:22.811Z,-0.42
2017-01-10T11:09:22.817Z,-1.36
2017-01-10T11:10:22.795Z,-1.08
2017-01-10T11:11:22.767Z,-0.55
2017-01-10T11:12:22.747Z,-0.78
2017-01-10T11:13:22.737Z,-1.15
2017-01-10T11:14:22.718Z,-0.59
2017-01-10T11:15:22.703Z,-0.27
2017-01-10T11:16:22.692Z,0.13
2017-01-10T11:17:22.679Z,0.35
2017-01-10T11:18:22.657Z,0.59
2017-01-10T11:19:22.635Z,0.8
2017-01-10T11:20:22.615Z,1.18
2017-01-10T11:21:22.612Z,0.95
2017-01-10T11:22:22.586Z,0.8
2017-01-10T11:23:22.575Z,0.74
2017-01-10T11:24:22.554Z,1.13
2017-01-10T11:25:22.552Z,0.62
2017-01-10T11:26:22.531Z,0.77
2017-01-10T11:27:22.509Z,1.13
2017-01-10T11:28:22.504Z,1.07
2017-01-10T11:29:22.488Z,0.8
2017-01-10T11:30:22.471Z,0.13
2017-01-10T11:31:22.468Z,-0.56
2017-01-10T11:32:22.446Z,-0.9
2017-01-10T11:33:22.429Z,-0.62
2017-01-10T11:34:22.421Z,-0.26
2017-01-10T11:35:22.396Z,0.12
2017-01-10T11:36:22.392Z,-0.2
2017-01-10T11:37:22.358Z,-1.02
2017-01-10T11:38:22.364Z,-0.63
2017-01-10T11:39:22.347Z,-1.31
2017-01-10T11:40:22.326Z,-1.92
2017-01-10T11:41:22.315Z,-2.47
2017-01-10T11:42:22.294Z,-1.78
2017-01-10T11:43:22.277Z,-1.32
2017-01-10T11:44:22.251Z,-0.81
2017-01-10T11:45:22.248Z,-0.5
2017-01-10T11:46:22.226Z,0.02
2017-01-10T11:47:22.208Z,0.05
2017-01-10T11:48:22.204Z,-0.2
2017-01-10T11:49:22.185Z,-0.58
2017-01-10T11:50:22.172Z,-1.02
2017-01-10T11:51:22.152Z,-1.61
2017-01-10T11:52:22.130Z,-1.61
2017-01-10T11:53:22.120Z,-1.41
2017-01-10T11:54:22.104Z,-1.9
2017-01-10T11:55:22.083Z,-2.18
2017-01-10T11:56:22.071Z,-2.94
2017-01-10T11:57:22.061Z,-2.97
2017-01-10T11:58:22.036Z,-3.04
2017-01-10T11:59:22.014Z,-3.65
2017-01-10T12:00:22.013Z,-4.59
2017-01-10T12:01:21.996Z,-4.62
2017-01-10T12:02:21.970Z,-4.83
2017-01-10T12:03:21.954Z,-4.91
2017-01-10T12:04:21.929Z,-5.34
2017-01-10T12:05:21.910Z,-5.35
2017-01-10T12:06:21.898Z,-5.2
2017-01-10T12:07:21.870Z,-4.91
2017-01-10T12:08:21.857Z,-4.46
2017-01-10T12:09:21.843Z,-4.51
2017-01-10T12:10:21.827Z,-4.76
2017-01-10T12:11:21.805Z,-5.48
2017-01-10T12:12:21.780Z,-5.09
2017-01-10T12:13:21.772Z,-4.93
2017-01-10T12:14:21.757Z,-4.77
2017-01-10T12:15:21.725Z,-4.9
2017-01-10T12:16:21.702Z,-5.27
2017-01-10T12:17:21.700Z,-5.59
2017-01-10T12:18:21.665Z,-5.45
2017-01-10T12:19:21.653Z,-4.73
2017-01-10T12:20:21.635Z,-3.91
2017-01-10T12:21:21.624Z,-3.37
2017-01-10T12:22:21.596Z,-3.15
2017-01-10T12:23:21.578Z,-3.34
2017-01-10T12:24:21.557Z,-3.36
2017-01-10T12:25:21.549Z,-3.49
2017-01-10T12:26:21.532Z,-3.57
2017-01-10T12:27:21.512Z,-3.72
2017-01-10T12:28:21.495Z,-3.97
2017-01-10T12:29:21.494Z,-4.19
2017-01-10T12:30:21.458Z,-4.65
2017-01-10T12:31:21.436Z,-4.87
2017-01-10T12:32:21.418Z,-5.11
2017-01-10T12:33:21.401Z,-4.87
2017-01-10T12:34:21.377Z,-4.85
2017-01-10T12:35:21.348Z,-5.33
2017-01-10T12:36:21.356Z,-5.38
2017-01-10T12:37:21.320Z,-5.24
2017-01-10T12:38:21.300Z,-4.81
2017-01-10T12:39:21.286Z,-4.55
2017-01-10T12:40:21.312Z,-4.36
2017-01-10T12:41:21.248Z,-3.99
2017-01-10T12:42:21.225Z,-4.3
2017-01-10T12:43:21.211Z,-4.41
2017-01-10T12:44:21.186Z,-4.34
2017-01-10T12:45:21.161Z,-4.38
2017-01-10T12:46:21.155Z,-4.07
2017-01-10T12:47:21.137Z,-4.01
2017-01-10T12:48:21.103Z,-3.86
2017-01-10T12:49:21.103Z,-3.76
2017-01-10T12:50:21.076Z,-3.51
2017-01-10T12:51:21.065Z,-3.36
2017-01-10T12:52:21.039Z,-3.1
2017-01-10T12:53:21.021Z,-2.79